createdAt,value
2022-08-25T00:01:57.228Z,2.60
2022-08-25T00:04:24.543Z,2.47
2022-08-25T00:06:52.938Z,2.40
2022-08-25T00:09:21.481Z,2.30
2022-08-25T00:11:49.337Z,2.77
2022-08-25T00:14:22.419Z,2.60
2022-08-25T00:16:49.583Z,2.50
2022-08-25T00:19:22.649Z,2.57
2022-08-25T00:21:49.514Z,2.20
2022-08-25T00:24:18.114Z,2.50
2022-08-25T00:26:48.397Z,2.70
2022-08-25T00:29:15.616Z,2.60
2022-08-25T00:31:43.002Z,2.40
2022-08-25T00:34:12.885Z,2.63
2022-08-25T00:36:39.611Z,2.40
2022-08-25T00:39:09.947Z,2.20
2022-08-25T00:41:37.990Z,2.57
2022-08-25T00:44:07.124Z,2.50
2022-08-25T00:46:41.510Z,2.43
2022-08-25T00:49:46.972Z,2.47
2022-08-25T00:52:17.976Z,2.60
2022-08-25T00:54:52.325Z,2.20
2022-08-25T00:57:34.049Z,2.80
2022-08-25T01:00:06.656Z,3.57
2022-08-25T01:02:33.558Z,2.23
2022-08-25T01:05:00.307Z,2.60
2022-08-25T01:07:26.966Z,2.57
2022-08-25T01:12:32.048Z,2.80
2022-08-25T01:14:59.000Z,2.20
2022-08-25T01:17:28.765Z,2.33
2022-08-25T01:19:57.291Z,2.60
2022-08-25T01:22:26.753Z,2.80
2022-08-25T01:25:12.215Z,2.47
2022-08-25T01:27:38.946Z,2.73
2022-08-25T01:30:06.523Z,2.40
2022-08-25T01:32:34.901Z,2.53
2022-08-25T01:35:01.615Z,2.60
2022-08-25T01:37:28.303Z,2.80
2022-08-25T01:39:55.266Z,2.60
2022-08-25T01:42:43.650Z,2.83
2022-08-25T01:45:10.499Z,2.40
2022-08-25T01:47:38.079Z,2.70
2022-08-25T01:50:06.031Z,2.93
2022-08-25T01:52:38.102Z,2.60
2022-08-25T01:55:05.716Z,2.40
2022-08-25T01:57:32.483Z,2.77
2022-08-25T01:59:59.354Z,2.50
2022-08-25T02:02:26.348Z,2.30
2022-08-25T02:04:53.409Z,2.63
2022-08-25T02:07:20.621Z,2.60
2022-08-25T02:09:47.499Z,2.73
2022-08-25T02:12:14.398Z,2.90
2022-08-25T02:14:41.581Z,2.70
2022-08-25T02:17:08.462Z,2.87
2022-08-25T02:19:35.194Z,2.63
2022-08-25T02:22:02.365Z,2.60
2022-08-25T02:24:29.106Z,2.60
2022-08-25T02:26:55.807Z,3.07
2022-08-25T02:29:22.813Z,3.23
2022-08-25T02:31:49.677Z,2.83
2022-08-25T02:34:16.670Z,3.13
2022-08-25T02:36:43.955Z,2.93
2022-08-25T02:39:11.618Z,3.03
2022-08-25T02:41:39.008Z,2.90
2022-08-25T02:44:06.896Z,2.83
2022-08-25T02:46:33.641Z,2.90
2022-08-25T02:49:00.414Z,2.87
2022-08-25T02:51:31.956Z,3.00
2022-08-25T02:54:02.040Z,2.73
2022-08-25T02:56:29.736Z,3.10
2022-08-25T02:58:57.105Z,2.77
2022-08-25T03:01:28.827Z,2.90
2022-08-25T03:03:56.532Z,2.90
2022-08-25T03:06:24.329Z,2.70
2022-08-25T03:08:52.211Z,3.00
2022-08-25T03:11:19.191Z,3.03
2022-08-25T03:13:46.041Z,3.03
2022-08-25T03:16:13.005Z,3.67
2022-08-25T03:18:41.535Z,3.00
2022-08-25T03:21:10.249Z,3.07
2022-08-25T03:23:37.434Z,3.00
2022-08-25T03:26:22.953Z,3.67
2022-08-25T03:28:49.657Z,3.20
2022-08-25T03:31:16.536Z,3.13
2022-08-25T03:33:43.336Z,3.10
2022-08-25T03:36:12.217Z,2.90
2022-08-25T03:38:39.982Z,3.00
2022-08-25T03:41:21.299Z,3.07
2022-08-25T03:43:48.911Z,3.10
2022-08-25T03:46:27.409Z,2.90
2022-08-25T03:48:54.362Z,2.90
2022-08-25T03:51:27.412Z,2.93
2022-08-25T03:53:54.830Z,2.90
2022-08-25T03:56:21.619Z,3.10
2022-08-25T03:58:48.863Z,3.50
2022-08-25T04:01:16.707Z,3.10
2022-08-25T04:03:45.442Z,3.20
2022-08-25T04:06:12.311Z,3.10
2022-08-25T04:08:39.254Z,3.60
2022-08-25T04:11:20.233Z,3.47
2022-08-25T04:13:48.044Z,3.07
2022-08-25T04:16:17.298Z,3.20
2022-08-25T04:18:45.076Z,3.27
2022-08-25T04:21:12.968Z,3.00
2022-08-25T04:23:41.701Z,3.00
2022-08-25T04:26:13.277Z,3.10
2022-08-25T04:28:40.947Z,3.30
2022-08-25T04:31:12.018Z,3.30
2022-08-25T04:33:39.154Z,3.43
2022-08-25T04:36:11.966Z,3.50
2022-08-25T04:38:40.373Z,3.53
2022-08-25T04:41:07.943Z,3.30
2022-08-25T04:43:35.950Z,3.50
2022-08-25T04:46:08.174Z,3.43
2022-08-25T04:48:35.238Z,3.20
2022-08-25T04:51:06.909Z,3.27
2022-08-25T04:53:34.667Z,3.20
2022-08-25T04:56:03.825Z,3.57
2022-08-25T04:58:31.008Z,3.57
2022-08-25T05:01:05.409Z,3.40
2022-08-25T05:03:32.463Z,3.57
2022-08-25T05:05:59.691Z,4.23
2022-08-25T05:08:26.498Z,3.20
2022-08-25T05:10:55.017Z,3.13
2022-08-25T05:13:22.874Z,3.57
2022-08-25T05:15:57.658Z,3.23
2022-08-25T05:18:28.947Z,3.20
2022-08-25T05:20:56.599Z,3.27
2022-08-25T05:23:25.277Z,3.20
2022-08-25T05:25:53.059Z,4.40
2022-08-25T05:28:21.019Z,3.10
2022-08-25T05:30:51.511Z,3.60
2022-08-25T05:33:18.461Z,3.17
2022-08-25T05:35:55.716Z,3.50
2022-08-25T05:38:22.845Z,3.87
2022-08-25T05:41:02.092Z,4.03
2022-08-25T05:43:29.607Z,3.90
2022-08-25T05:45:58.170Z,4.40
2022-08-25T05:48:25.916Z,3.50
2022-08-25T05:50:54.364Z,3.77
2022-08-25T05:53:22.894Z,3.87
2022-08-25T05:55:51.136Z,3.70
2022-08-25T05:58:18.505Z,3.70
2022-08-25T06:00:45.987Z,3.50
2022-08-25T06:03:12.876Z,3.80
2022-08-25T06:05:39.790Z,3.40
2022-08-25T06:08:06.752Z,3.40
2022-08-25T06:10:34.181Z,4.10
2022-08-25T06:13:01.110Z,4.00
2022-08-25T06:15:28.231Z,4.37
2022-08-25T06:18:00.721Z,3.73
2022-08-25T06:20:30.610Z,3.83
2022-08-25T06:22:58.194Z,3.80
2022-08-25T06:25:26.416Z,4.00
2022-08-25T06:27:54.407Z,4.23
2022-08-25T06:30:28.416Z,4.27
2022-08-25T06:32:56.089Z,3.80
2022-08-25T06:35:23.340Z,3.73
2022-08-25T06:37:50.114Z,3.83
2022-08-25T06:40:17.289Z,3.90
2022-08-25T06:42:48.529Z,4.10
2022-08-25T06:45:15.820Z,4.23
2022-08-25T06:47:42.917Z,4.40
2022-08-25T06:50:12.729Z,4.10
2022-08-25T06:52:39.602Z,4.20
2022-08-25T06:55:06.858Z,5.07
2022-08-25T06:57:35.863Z,3.70
2022-08-25T07:00:05.937Z,3.90
2022-08-25T07:02:35.415Z,4.30
2022-08-25T07:05:02.981Z,3.93
2022-08-25T07:07:43.248Z,3.60
2022-08-25T07:10:11.257Z,4.17
2022-08-25T07:12:38.037Z,4.63
2022-08-25T07:15:21.200Z,3.67
2022-08-25T07:17:48.721Z,3.83
2022-08-25T07:20:16.926Z,3.73
2022-08-25T07:22:46.241Z,3.83
2022-08-25T07:25:13.235Z,3.70
2022-08-25T07:27:41.276Z,4.07
2022-08-25T07:30:11.373Z,3.97
2022-08-25T07:32:42.160Z,4.03
2022-08-25T07:35:19.176Z,4.57
2022-08-25T07:37:49.821Z,3.93
2022-08-25T07:40:22.608Z,4.37
2022-08-25T07:42:52.352Z,3.90
2022-08-25T07:45:21.013Z,4.30
2022-08-25T07:47:48.434Z,4.53
2022-08-25T07:50:18.964Z,4.00
2022-08-25T07:52:52.065Z,4.67
2022-08-25T07:55:21.996Z,4.87
2022-08-25T07:57:50.927Z,4.57
2022-08-25T08:00:22.613Z,4.23
2022-08-25T08:02:51.451Z,4.50
2022-08-25T08:05:18.366Z,4.90
2022-08-25T08:07:45.079Z,4.80
2022-08-25T08:13:01.866Z,4.50
2022-08-25T08:15:29.602Z,4.37
2022-08-25T08:17:58.009Z,4.63
2022-08-25T08:20:24.999Z,4.33
2022-08-25T08:22:51.768Z,4.23
2022-08-25T08:25:21.157Z,4.40
2022-08-25T08:27:48.834Z,4.83
2022-08-25T08:30:15.809Z,4.30
2022-08-25T08:33:06.399Z,4.73
2022-08-25T08:35:30.727Z,4.67
2022-08-25T08:37:57.545Z,4.73
2022-08-25T08:40:24.631Z,4.70
2022-08-25T08:43:13.272Z,5.20
2022-08-25T08:45:50.455Z,4.70
2022-08-25T08:48:29.164Z,4.53
2022-08-25T08:51:20.432Z,4.37
2022-08-25T08:53:57.524Z,4.37
2022-08-25T08:56:31.677Z,4.70
2022-08-25T08:59:14.364Z,4.83
2022-08-25T09:01:59.125Z,4.70
2022-08-25T09:05:03.226Z,4.87
2022-08-25T09:07:39.150Z,4.68
2022-08-25T09:10:11.212Z,4.83
2022-08-25T09:12:48.113Z,4.50
2022-08-25T09:16:23.358Z,4.77
2022-08-25T09:19:23.519Z,4.77
2022-08-25T09:21:53.284Z,4.50
2022-08-25T09:24:23.726Z,4.67
2022-08-25T09:27:15.423Z,4.77
2022-08-25T09:30:21.212Z,4.32
2022-08-25T09:32:55.069Z,4.25
2022-08-25T09:35:26.284Z,4.18
2022-08-25T09:38:04.698Z,4.13
2022-08-25T09:40:34.664Z,4.22
2022-08-25T09:43:05.653Z,4.20
2022-08-25T09:45:42.389Z,4.57
2022-08-25T09:48:28.649Z,4.35
2022-08-25T09:51:00.978Z,4.10
2022-08-25T09:53:29.003Z,4.20
2022-08-25T09:56:04.960Z,4.90
2022-08-25T09:58:32.300Z,4.13
2022-08-25T10:01:22.431Z,4.35
2022-08-25T10:03:57.878Z,4.55
2022-08-25T10:06:27.015Z,4.22
2022-08-25T10:08:58.087Z,3.90
2022-08-25T10:11:37.495Z,4.07
2022-08-25T10:14:25.754Z,4.10
2022-08-25T10:16:53.408Z,4.18
2022-08-25T10:19:23.527Z,4.57
2022-08-25T10:22:05.989Z,3.83
2022-08-25T10:24:33.560Z,4.40
2022-08-25T10:27:15.019Z,4.50
2022-08-25T10:30:13.367Z,4.18
2022-08-25T10:32:54.748Z,4.40
2022-08-25T10:35:43.896Z,4.20
2022-08-25T10:38:22.589Z,4.05
2022-08-25T10:41:13.202Z,4.43
2022-08-25T10:44:32.162Z,3.90
2022-08-25T10:47:20.649Z,3.83
2022-08-25T10:49:57.094Z,4.07
2022-08-25T10:55:07.119Z,3.90
2022-08-25T10:58:16.271Z,4.30
2022-08-25T11:01:28.067Z,4.68
2022-08-25T11:04:01.911Z,3.92
2022-08-25T11:07:04.491Z,3.97
2022-08-25T11:09:36.643Z,4.53
2022-08-25T11:12:10.682Z,4.85
2022-08-25T11:14:40.875Z,4.32
2022-08-25T11:17:17.723Z,4.07
2022-08-25T11:19:53.175Z,3.95
2022-08-25T11:22:44.606Z,4.40
2022-08-25T11:25:31.748Z,4.55
2022-08-25T11:28:26.467Z,4.50
2022-08-25T11:30:54.108Z,4.18
2022-08-25T11:33:22.055Z,4.35
2022-08-25T11:36:13.322Z,4.28
2022-08-25T11:39:34.464Z,4.13
2022-08-25T11:42:20.913Z,4.10
2022-08-25T11:44:53.829Z,4.10
2022-08-25T11:47:27.777Z,4.03
2022-08-25T11:50:00.924Z,3.90
2022-08-25T11:52:34.803Z,3.50
2022-08-25T11:55:16.946Z,3.70
2022-08-25T11:57:45.572Z,3.42
2022-08-25T12:00:37.013Z,3.63
2022-08-25T12:03:31.756Z,3.35
2022-08-25T12:06:13.994Z,3.45
2022-08-25T12:08:49.700Z,3.70
2022-08-25T12:11:38.804Z,3.67
2022-08-25T12:14:24.654Z,3.25
2022-08-25T12:16:55.144Z,3.42
2022-08-25T12:19:38.032Z,3.70
2022-08-25T12:22:04.919Z,3.45
2022-08-25T12:24:48.007Z,3.63
2022-08-25T12:28:09.463Z,3.50
2022-08-25T12:30:59.082Z,3.97
2022-08-25T12:33:34.715Z,3.25
2022-08-25T12:36:11.374Z,3.83
2022-08-25T12:38:49.627Z,3.00
2022-08-25T12:41:22.186Z,3.22
2022-08-25T12:43:53.309Z,3.45
2022-08-25T12:46:20.154Z,3.10
2022-08-25T12:49:00.360Z,3.38
2022-08-25T12:51:35.896Z,3.17
2022-08-25T12:54:37.967Z,3.47
2022-08-25T12:57:43.333Z,3.45
2022-08-25T13:00:20.237Z,3.50
2022-08-25T13:03:17.551Z,2.83
2022-08-25T13:06:06.168Z,3.42
2022-08-25T13:08:38.887Z,3.05
2022-08-25T13:11:20.428Z,2.90
2022-08-25T13:14:07.558Z,2.97
2022-08-25T13:16:37.256Z,3.38
2022-08-25T13:19:06.729Z,2.67
2022-08-25T13:21:41.834Z,2.92
2022-08-25T13:24:28.220Z,3.00
2022-08-25T13:26:58.217Z,2.70
2022-08-25T13:29:29.379Z,2.90
2022-08-25T13:32:09.667Z,2.83
2022-08-25T13:34:42.844Z,2.83
2022-08-25T13:37:32.490Z,2.55
2022-08-25T13:40:11.452Z,2.50
2022-08-25T13:42:42.446Z,2.75
2022-08-25T13:45:14.983Z,2.75
2022-08-25T13:47:43.586Z,2.80
2022-08-25T13:50:19.933Z,3.13
2022-08-25T13:53:16.136Z,2.83
2022-08-25T13:55:52.230Z,2.60
2022-08-25T13:58:39.005Z,2.92
2022-08-25T14:01:48.874Z,2.58
2022-08-25T14:04:29.312Z,2.88
2022-08-25T14:07:33.810Z,2.75
2022-08-25T14:10:44.593Z,2.67
2022-08-25T14:13:38.176Z,2.45
2022-08-25T14:16:22.619Z,2.78
2022-08-25T14:18:54.856Z,2.40
2022-08-25T14:21:27.750Z,2.65
2022-08-25T14:23:55.352Z,2.78
2022-08-25T14:26:22.265Z,2.55
2022-08-25T14:28:49.609Z,2.42
2022-08-25T14:31:43.853Z,2.42
2022-08-25T14:34:17.079Z,2.40
2022-08-25T14:36:44.824Z,2.90
2022-08-25T14:39:11.957Z,2.88
2022-08-25T14:41:45.321Z,2.53
2022-08-25T14:44:20.255Z,3.00
2022-08-25T14:46:52.411Z,2.42
2022-08-25T14:49:25.000Z,2.75
2022-08-25T14:51:51.970Z,2.65
2022-08-25T14:54:20.339Z,2.60
2022-08-25T14:56:48.494Z,2.40
2022-08-25T14:59:15.515Z,2.60
2022-08-25T15:01:42.447Z,2.55
2022-08-25T15:04:16.167Z,2.80
2022-08-25T15:06:44.807Z,2.80
2022-08-25T15:09:13.834Z,2.70
2022-08-25T15:11:45.900Z,2.70
2022-08-25T15:14:15.549Z,2.53
2022-08-25T15:16:50.629Z,2.60
2022-08-25T15:19:20.296Z,2.60
2022-08-25T15:21:48.259Z,2.72
2022-08-25T15:24:17.499Z,3.00
2022-08-25T15:26:58.621Z,2.80
2022-08-25T15:29:29.218Z,2.72
2022-08-25T15:31:56.635Z,2.78
2022-08-25T15:34:23.480Z,2.60
2022-08-25T15:36:50.860Z,2.80
2022-08-25T15:39:19.161Z,2.67
2022-08-25T15:41:49.415Z,2.92
2022-08-25T15:44:16.733Z,2.53
2022-08-25T15:46:46.923Z,2.60
2022-08-25T15:49:20.757Z,2.50
2022-08-25T15:51:52.334Z,2.30
2022-08-25T15:54:20.136Z,2.65
2022-08-25T15:56:47.214Z,2.70
2022-08-25T15:59:14.478Z,2.75
2022-08-25T16:01:41.832Z,2.70
2022-08-25T16:04:08.525Z,2.53
2022-08-25T16:06:35.290Z,2.60
2022-08-25T16:09:02.310Z,2.50
2022-08-25T16:11:30.999Z,2.75
2022-08-25T16:13:58.022Z,2.50
2022-08-25T16:16:27.020Z,2.60
2022-08-25T16:18:54.103Z,2.72
2022-08-25T16:21:29.063Z,2.58
2022-08-25T16:24:01.205Z,2.85
2022-08-25T16:26:30.585Z,2.80
2022-08-25T16:28:57.429Z,2.30
2022-08-25T16:31:24.696Z,2.63
2022-08-25T16:33:54.747Z,2.40
2022-08-25T16:36:27.103Z,2.60
2022-08-25T16:38:56.047Z,2.70
2022-08-25T16:41:25.449Z,2.40
2022-08-25T16:43:52.419Z,2.70
2022-08-25T16:46:21.164Z,2.58
2022-08-25T16:48:48.759Z,2.70
2022-08-25T16:51:19.257Z,2.47
2022-08-25T16:54:07.756Z,2.70
2022-08-25T16:56:36.080Z,2.67
2022-08-25T16:59:04.564Z,2.70
2022-08-25T17:01:36.457Z,2.50
2022-08-25T17:04:05.483Z,2.75
2022-08-25T17:06:36.028Z,2.35
2022-08-25T17:09:03.219Z,2.50
2022-08-25T17:11:32.920Z,2.50
2022-08-25T17:14:01.812Z,2.85
2022-08-25T17:16:35.648Z,2.50
2022-08-25T17:19:05.875Z,2.30
2022-08-25T17:21:36.032Z,2.60
2022-08-25T17:24:04.854Z,2.63
2022-08-25T17:26:31.862Z,2.80
2022-08-25T17:29:01.806Z,2.53
2022-08-25T17:31:29.967Z,2.67
2022-08-25T17:33:57.518Z,2.67
2022-08-25T17:36:26.863Z,2.30
2022-08-25T17:38:54.535Z,2.80
2022-08-25T17:41:21.325Z,2.42
2022-08-25T17:43:48.080Z,2.42
2022-08-25T17:46:15.352Z,2.50
2022-08-25T17:48:43.772Z,2.70
2022-08-25T17:51:11.542Z,2.80
2022-08-25T17:53:39.435Z,2.38
2022-08-25T17:56:09.870Z,2.55
2022-08-25T17:58:37.085Z,2.50
2022-08-25T18:01:04.359Z,2.60
2022-08-25T18:03:32.244Z,3.22
2022-08-25T18:05:59.226Z,2.90
2022-08-25T18:08:31.986Z,2.70
2022-08-25T18:11:02.169Z,2.90
2022-08-25T18:13:29.711Z,3.85
2022-08-25T18:15:56.429Z,2.95
2022-08-25T18:18:24.242Z,2.72
2022-08-25T18:20:51.281Z,3.10
2022-08-25T18:23:20.048Z,3.05
2022-08-25T18:25:49.148Z,3.28
2022-08-25T18:28:16.540Z,3.20
2022-08-25T18:30:43.282Z,3.03
2022-08-25T18:33:10.117Z,3.25
2022-08-25T18:35:36.905Z,3.35
2022-08-25T18:38:24.067Z,3.72
2022-08-25T18:41:04.954Z,4.10
2022-08-25T18:43:33.866Z,4.25
2022-08-25T18:46:01.611Z,3.92
2022-08-25T18:48:28.413Z,4.10
2022-08-25T18:50:56.798Z,4.35
2022-08-25T18:53:36.775Z,4.50
2022-08-25T18:56:04.622Z,3.88
2022-08-25T18:58:31.458Z,3.80
2022-08-25T19:00:58.206Z,3.95
2022-08-25T19:03:25.308Z,3.92
2022-08-25T19:05:57.219Z,4.18
2022-08-25T19:08:24.867Z,3.60
2022-08-25T19:10:53.578Z,4.50
2022-08-25T19:13:22.745Z,3.60
2022-08-25T19:15:51.267Z,3.65
2022-08-25T19:18:19.255Z,3.08
2022-08-25T19:20:52.878Z,3.38
2022-08-25T19:23:19.789Z,3.15
2022-08-25T19:25:46.688Z,3.45
2022-08-25T19:28:14.028Z,3.95
2022-08-25T19:30:50.166Z,4.20
2022-08-25T19:33:42.763Z,3.92
2022-08-25T19:36:08.750Z,4.40
2022-08-25T19:38:36.365Z,4.10
2022-08-25T19:41:13.825Z,4.30
2022-08-25T19:43:55.549Z,4.32
2022-08-25T19:46:33.426Z,4.10
2022-08-25T19:49:08.759Z,4.38
2022-08-25T19:51:45.225Z,4.25
2022-08-25T19:54:20.073Z,4.32
2022-08-25T19:56:54.607Z,4.85
2022-08-25T19:59:36.619Z,4.43
2022-08-25T20:02:21.219Z,4.45
2022-08-25T20:04:50.380Z,4.25
2022-08-25T20:07:18.993Z,5.57
2022-08-25T20:09:45.840Z,5.00
2022-08-25T20:14:45.199Z,4.50
2022-08-25T20:17:23.009Z,4.88
2022-08-25T20:19:52.548Z,5.05
2022-08-25T20:22:22.507Z,4.75
2022-08-25T20:24:56.225Z,4.63
2022-08-25T20:27:37.616Z,5.10
2022-08-25T20:30:11.059Z,4.75
2022-08-25T20:32:37.853Z,5.10
2022-08-25T20:35:09.305Z,4.93
2022-08-25T20:37:36.347Z,4.82
2022-08-25T20:40:05.824Z,4.88
2022-08-25T20:42:32.628Z,5.00
2022-08-25T20:45:01.656Z,4.68
2022-08-25T20:47:28.439Z,4.93
2022-08-25T20:49:55.256Z,5.10
2022-08-25T20:52:22.020Z,5.17
2022-08-25T20:54:50.363Z,5.70
2022-08-25T20:57:24.413Z,5.40
2022-08-25T20:59:52.821Z,5.33
2022-08-25T21:02:20.133Z,5.50
2022-08-25T21:04:50.050Z,5.43
2022-08-25T21:07:19.797Z,5.70
2022-08-25T21:09:47.940Z,5.40
2022-08-25T21:12:14.742Z,5.72
2022-08-25T21:14:42.420Z,4.88
2022-08-25T21:17:13.312Z,5.20
2022-08-25T21:19:41.816Z,5.07
2022-08-25T21:22:09.674Z,5.20
2022-08-25T21:24:38.405Z,5.10
2022-08-25T21:27:05.399Z,5.07
2022-08-25T21:29:33.076Z,4.97
2022-08-25T21:32:00.107Z,5.43
2022-08-25T21:34:28.818Z,5.50
2022-08-25T21:36:59.377Z,5.43
2022-08-25T21:39:28.674Z,5.47
2022-08-25T21:41:56.524Z,5.33
2022-08-25T21:44:23.599Z,5.03
2022-08-25T21:46:54.181Z,5.03
2022-08-25T21:49:22.122Z,5.33
2022-08-25T21:51:59.233Z,5.33
2022-08-25T21:54:26.525Z,5.80
2022-08-25T21:56:59.567Z,5.70
2022-08-25T21:59:29.358Z,6.07
2022-08-25T22:01:57.563Z,5.47
2022-08-25T22:04:24.966Z,5.97
2022-08-25T22:06:51.690Z,5.77
2022-08-25T22:09:18.408Z,5.47
2022-08-25T22:11:45.971Z,5.20
2022-08-25T22:14:14.509Z,5.33
2022-08-25T22:16:42.399Z,5.83
2022-08-25T22:19:11.094Z,5.80
2022-08-25T22:21:38.802Z,5.63
2022-08-25T22:24:05.719Z,6.17
2022-08-25T22:26:34.050Z,6.03
2022-08-25T22:29:01.855Z,5.50
2022-08-25T22:31:29.262Z,6.00
2022-08-25T22:33:57.644Z,5.90
2022-08-25T22:36:30.850Z,6.20
2022-08-25T22:38:58.467Z,5.97
2022-08-25T22:41:27.107Z,6.10
2022-08-25T22:43:55.430Z,5.90
2022-08-25T22:46:23.147Z,5.93
2022-08-25T22:48:51.476Z,5.83
2022-08-25T22:51:24.334Z,5.83
2022-08-25T22:53:51.276Z,5.37
2022-08-25T22:56:32.411Z,6.17
2022-08-25T22:59:01.154Z,5.60
2022-08-25T23:01:28.105Z,5.47
2022-08-25T23:03:55.368Z,6.30
2022-08-25T23:06:25.019Z,5.90
2022-08-25T23:08:53.560Z,5.93
2022-08-25T23:11:21.369Z,5.70
2022-08-25T23:13:48.050Z,5.80
2022-08-25T23:16:15.359Z,5.30
2022-08-25T23:18:44.739Z,5.50
2022-08-25T23:21:35.105Z,5.77
2022-08-25T23:24:05.770Z,5.50
2022-08-25T23:26:36.472Z,5.53
2022-08-25T23:29:17.838Z,5.40
2022-08-25T23:31:46.600Z,5.80
2022-08-25T23:34:14.455Z,5.57
2022-08-25T23:36:41.189Z,5.73
2022-08-25T23:39:09.327Z,5.57
2022-08-25T23:41:36.922Z,6.03
2022-08-25T23:44:05.525Z,5.50
2022-08-25T23:46:35.051Z,5.90
2022-08-25T23:49:04.068Z,5.90
2022-08-25T23:51:33.932Z,5.80
2022-08-25T23:54:09.259Z,5.53
2022-08-25T23:56:44.521Z,5.77
2022-08-25T23:59:18.221Z,4.97
